Time;durP1;ratioP1;P1;durP2;ratioP2;P2;SDS_P1;SDS_P2;PMS_P1;PMS_P2;Temp;Humidity;BMP_temperature;BMP_pressure;BME280_temperature;BME280_humidity;BME280_pressure;Samples;Min_cycle;Max_cycle;Signal;HPM_P1;HPM_P2
2023/05/27 01:00:01;1170043.00;3.90;2036.15;97653.00;0.33;169.52;;;;;17.20;1.00;;;;;;2270525;61;1191;-92
2023/05/27 01:20:55;1147967.00;3.83;1996.42;45091.00;0.15;78.70;;;;;16.70;1.00;;;;;;2502547;56;3607;31
2023/05/27 02:20:29;1055023.00;3.52;1830.17;165901.00;0.55;287.21;;;;;17.80;1.00;;;;;;2275271;61;1023;-91
2023/05/27 02:27:58;623581.00;2.08;1074.95;0.00;0.00;0.62;;;;;18.30;1.00;;;;;;2266906;61;1371;-90
2023/05/27 04:44:38;710458.00;2.37;1225.38;27978.00;0.09;49.08;;;;;17.10;1.00;;;;;;2503921;55;3545;31
2023/05/27 06:37:43;1168912.00;3.90;2034.11;133937.00;0.45;232.12;;;;;28.50;1.00;;;;;;2258517;61;1009;-89
2023/05/27 07:02:52;715974.00;2.39;1234.95;0.00;0.00;0.62;;;;;27.80;1.00;;;;;;2341773;40;3630;-89
2023/05/27 07:10:17;418808.00;1.40;722.14;0.00;0.00;0.62;;;;;27.40;1.00;;;;;;2350586;55;3642;-91
2023/05/27 07:12:44;153066.00;0.51;265.09;0.00;0.00;0.62;;;;;28.30;1.00;;;;;;2294928;56;3720;-90
2023/05/27 07:15:11;571748.00;1.91;985.46;52150.00;0.17;90.90;;;;;29.60;1.00;;;;;;2280448;40;3588;-89
2023/05/27 07:17:38;14826.00;0.05;26.31;0.00;0.00;0.62;;;;;29.70;1.00;;;;;;2264220;61;1711;-89
2023/05/27 07:20:08;396688.00;1.32;684.11;56063.00;0.19;97.67;;;;;30.50;1.00;;;;;;2264388;61;1071;-89
2023/05/27 07:22:35;229905.00;0.77;397.39;0.00;0.00;0.62;;;;;29.50;1.00;;;;;;2264043;61;1077;-88
2023/05/27 07:25:03;221130.00;0.74;382.29;0.00;0.00;0.62;;;;;29.60;1.00;;;;;;2264256;61;1341;-87
2023/05/27 07:27:30;259778.00;0.87;448.77;44422.00;0.15;77.54;;;;;29.40;1.00;;;;;;2263964;61;1064;-87
2023/05/27 07:29:57;176842.00;0.59;306.05;0.00;0.00;0.62;;;;;30.00;1.00;;;;;;2264230;61;1577;-87
2023/05/27 07:32:25;145475.00;0.48;252.01;0.00;0.00;0.62;;;;;29.70;1.00;;;;;;2264164;61;2034;-87
2023/05/27 07:34:51;72473.00;0.24;126.03;0.00;0.00;0.62;;;;;29.90;1.00;;;;;;2263985;61;1317;-89
2023/05/27 07:37:22;383450.00;1.28;661.36;54909.00;0.18;95.68;;;;;29.50;1.00;;;;;;2264045;61;1128;-88
2023/05/27 07:39:50;163603.00;0.55;283.25;0.00;0.00;0.62;;;;;28.70;1.00;;;;;;2264128;61;971;-88
2023/05/27 07:42:17;98304.00;0.33;170.64;0.00;0.00;0.62;;;;;29.10;1.00;;;;;;2264188;61;1604;-89
2023/05/27 07:44:44;134565.00;0.45;233.20;0.00;0.00;0.62;;;;;28.60;1.00;;;;;;2264041;61;1392;-88
2023/05/27 07:47:11;93201.00;0.31;161.83;0.00;0.00;0.62;;;;;28.30;1.00;;;;;;2264234;61;1121;-88
2023/05/27 07:49:38;112201.00;0.37;194.63;0.00;0.00;0.62;;;;;28.00;1.00;;;;;;2264045;61;1705;-89
2023/05/27 07:52:05;159035.00;0.53;275.38;0.00;0.00;0.62;;;;;28.60;1.00;;;;;;2263956;61;1912;-88
2023/05/27 07:54:35;299023.00;1.00;516.24;37286.00;0.12;65.19;;;;;28.70;1.00;;;;;;2264116;61;1312;-88
2023/05/27 07:57:02;397334.00;1.32;685.22;33577.00;0.11;58.77;;;;;29.30;1.00;;;;;;2264138;61;1022;-87
2023/05/27 07:59:29;182237.00;0.61;315.34;33145.00;0.11;58.03;;;;;28.90;1.00;;;;;;2264142;61;921;-88
2023/05/27 08:01:56;105758.00;0.35;183.51;0.00;0.00;0.62;;;;;28.40;1.00;;;;;;2264172;61;1424;-88
2023/05/27 08:04:23;219662.00;0.73;379.76;0.00;0.00;0.62;;;;;27.90;1.00;;;;;;2264108;61;1387;-88
2023/05/27 08:06:50;47103.00;0.16;82.18;0.00;0.00;0.62;;;;;27.40;1.00;;;;;;2268787;56;3817;-87
2023/05/27 08:09:18;214863.00;0.72;371.50;24163.00;0.08;42.48;;;;;27.60;1.00;;;;;;2263811;61;1263;-87
2023/05/27 08:11:46;109034.00;0.36;189.16;0.00;0.00;0.62;;;;;27.30;1.00;;;;;;2263876;61;1994;-87
2023/05/27 08:14:13;184615.00;0.62;319.44;15348.00;0.05;27.21;;;;;27.60;1.00;;;;;;2263999;61;1112;-88
2023/05/27 08:16:40;16046.00;0.05;28.42;0.00;0.00;0.62;;;;;28.60;1.00;;;;;;2259983;61;1317;-88
2023/05/27 08:19:07;90024.00;0.30;156.35;0.00;0.00;0.62;;;;;27.90;1.00;;;;;;2260123;61;1115;-88
2023/05/27 08:21:33;347862.00;1.16;600.19;51970.00;0.17;90.59;;;;;28.40;1.00;;;;;;2259967;61;1676;-86
2023/05/27 08:24:02;505420.00;1.68;871.16;92986.00;0.31;161.46;;;;;29.10;1.00;;;;;;2260103;61;1087;-87
2023/05/27 08:26:29;272483.00;0.91;470.61;60533.00;0.20;105.40;;;;;29.30;1.00;;;;;;2260103;61;1183;-87
2023/05/27 08:28:57;111134.00;0.37;192.79;0.00;0.00;0.62;;;;;28.80;1.00;;;;;;2259954;61;1115;-87
2023/05/27 08:31:24;422334.00;1.41;728.20;63996.00;0.21;111.38;;;;;28.50;1.00;;;;;;2260106;61;1993;-87
2023/05/27 08:33:51;8917.00;0.03;16.07;0.00;0.00;0.62;;;;;28.80;1.00;;;;;;2260043;61;918;-87
2023/05/27 08:36:19;261514.00;0.87;451.75;5907.00;0.02;10.86;;;;;28.30;1.00;;;;;;2259929;61;1379;-87
2023/05/27 08:38:46;48579.00;0.16;84.73;0.00;0.00;0.62;;;;;28.40;1.00;;;;;;2260100;61;1454;-88
2023/05/27 08:41:13;134331.00;0.45;232.80;33397.00;0.11;58.46;;;;;27.60;1.00;;;;;;2260186;61;1128;-87
2023/05/27 08:43:41;239549.00;0.80;413.98;0.00;0.00;0.62;;;;;27.10;1.00;;;;;;2260091;61;1564;-87
2023/05/27 08:46:10;200430.00;0.67;346.66;43878.00;0.15;76.60;;;;;27.20;1.00;;;;;;2260105;61;1363;-86
2023/05/27 08:48:38;90372.00;0.30;156.95;0.00;0.00;0.62;;;;;27.00;1.00;;;;;;2260128;61;1021;-88
2023/05/27 08:51:06;8243.00;0.03;14.91;0.00;0.00;0.62;;;;;27.20;1.00;;;;;;2260004;61;2214;-87
2023/05/27 08:53:34;60386.00;0.20;105.14;0.00;0.00;0.62;;;;;27.50;1.00;;;;;;2260057;61;1033;-88
2023/05/27 08:56:02;386713.00;1.29;666.96;87697.00;0.29;152.33;;;;;27.20;1.00;;;;;;2260104;61;1272;-87
2023/05/27 08:58:29;33163.00;0.11;58.06;0.00;0.00;0.62;;;;;26.70;1.00;;;;;;2260139;61;1120;-86
2023/05/27 09:00:57;271690.00;0.91;469.25;43876.00;0.15;76.59;;;;;27.00;1.00;;;;;;2259995;61;1755;-86
2023/05/27 09:03:27;259613.00;0.87;448.48;0.00;0.00;0.62;;;;;27.70;1.00;;;;;;2260143;61;1064;-85
2023/05/27 09:05:55;96386.00;0.32;167.33;0.00;0.00;0.62;;;;;27.10;1.00;;;;;;2260117;61;1323;-88
2023/05/27 09:08:22;138428.00;0.46;239.86;0.00;0.00;0.62;;;;;26.70;1.00;;;;;;2260057;61;1712;-87
2023/05/27 09:10:50;0.00;0.00;0.62;0.00;0.00;0.62;;;;;26.60;1.00;;;;;;2260024;61;1915;-88
2023/05/27 09:13:27;232541.00;0.78;401.92;0.00;0.00;0.62;;;;;26.60;1.00;;;;;;2260224;61;974;-88
2023/05/27 09:16:00;169343.00;0.56;293.13;0.00;0.00;0.62;;;;;26.30;1.00;;;;;;2260127;61;1381;-89
2023/05/27 09:18:30;298006.00;0.99;514.49;55253.00;0.18;96.27;;;;;26.10;1.00;;;;;;2260098;61;1084;-87
2023/05/27 09:20:57;267594.00;0.89;462.21;54209.00;0.18;94.46;;;;;25.30;1.00;;;;;;2260185;61;1006;-88
2023/05/27 09:23:25;541589.00;1.81;933.46;146141.00;0.49;253.16;;;;;25.00;1.00;;;;;;2260117;61;1074;-86
2023/05/27 09:25:52;85729.00;0.29;148.93;0.00;0.00;0.62;;;;;25.10;1.00;;;;;;2260066;61;1289;-91
2023/05/27 09:28:22;517808.00;1.73;892.49;134837.00;0.45;233.67;;;;;24.50;1.00;;;;;;2260202;61;928;-87
2023/05/27 09:30:55;122117.00;0.41;211.73;0.00;0.00;0.62;;;;;24.70;1.00;;;;;;2260116;61;1210;-86
2023/05/27 09:33:25;651241.00;2.17;1122.78;96181.00;0.32;166.98;;;;;25.10;1.00;;;;;;2259943;61;1144;-89
2023/05/27 09:35:53;130765.00;0.44;226.65;0.00;0.00;0.62;;;;;25.50;1.00;;;;;;2260048;61;1327;-88
2023/05/27 09:38:20;140163.00;0.47;242.85;0.00;0.00;0.62;;;;;25.40;1.00;;;;;;2260004;61;1045;-88
2023/05/27 09:40:47;64672.00;0.22;112.55;0.00;0.00;0.62;;;;;25.40;1.00;;;;;;2263505;56;3796;-87
2023/05/27 09:43:16;127253.00;0.42;220.59;0.00;0.00;0.62;;;;;25.10;1.00;;;;;;2264648;61;1072;-88
2023/05/27 09:45:43;246288.00;0.82;425.57;0.00;0.00;0.62;;;;;25.20;1.00;;;;;;2264558;61;1230;-88
2023/05/27 09:48:13;127828.00;0.43;221.58;0.00;0.00;0.62;;;;;25.30;1.00;;;;;;2263954;61;1077;-88
2023/05/27 09:50:41;162193.00;0.54;280.82;0.00;0.00;0.62;;;;;25.10;1.00;;;;;;2263822;61;996;-88
2023/05/27 09:53:10;8452.00;0.03;15.27;0.00;0.00;0.62;;;;;25.10;1.00;;;;;;2263992;61;1997;-85
2023/05/27 09:55:37;268926.00;0.90;464.50;25749.00;0.09;45.22;;;;;25.30;1.00;;;;;;2263960;61;1246;-86
2023/05/27 09:58:04;141345.00;0.47;244.89;34696.00;0.12;60.71;;;;;25.20;1.00;;;;;;2263991;61;1746;-88
2023/05/27 10:00:32;125361.00;0.42;217.33;0.00;0.00;0.62;;;;;25.40;1.00;;;;;;2264005;61;1020;-87
2023/05/27 10:03:02;195069.00;0.65;337.44;8233.00;0.03;14.89;;;;;25.30;1.00;;;;;;2263942;61;1104;-88
2023/05/27 10:05:30;146895.00;0.49;254.46;0.00;0.00;0.62;;;;;25.10;1.00;;;;;;2263943;61;1391;-88
2023/05/27 10:07:58;14392.00;0.05;25.56;0.00;0.00;0.62;;;;;25.10;1.00;;;;;;2263993;61;1078;-90
2023/05/27 10:10:26;53041.00;0.18;92.45;0.00;0.00;0.62;;;;;25.00;1.00;;;;;;2264016;61;1068;-90
2023/05/27 10:12:57;186180.00;0.62;322.13;0.00;0.00;0.62;;;;;24.70;1.00;;;;;;2264514;61;2392;-88
2023/05/27 10:15:29;173652.00;0.58;300.56;0.00;0.00;0.62;;;;;24.10;1.00;;;;;;2264698;61;1312;-89
2023/05/27 10:17:58;9412.00;0.03;16.93;0.00;0.00;0.62;;;;;24.40;1.00;;;;;;2264730;61;2397;-89
2023/05/27 10:20:29;27014.00;0.09;47.41;0.00;0.00;0.62;;;;;24.60;1.00;;;;;;2264466;61;993;-90
2023/05/27 10:22:57;343416.00;1.14;592.54;50328.00;0.17;87.75;;;;;25.00;1.00;;;;;;2264595;61;1099;-90
2023/05/27 10:25:36;399752.00;1.33;689.38;117707.00;0.39;204.13;;;;;24.80;1.00;;;;;;2264525;61;1401;-88
2023/05/27 10:28:03;188152.00;0.63;325.53;32687.00;0.11;57.23;;;;;24.40;1.00;;;;;;2264557;61;1006;-87
2023/05/27 10:30:30;106527.00;0.36;184.84;0.00;0.00;0.62;;;;;24.50;1.00;;;;;;2264568;61;1554;-87
2023/05/27 10:32:58;50879.00;0.17;88.71;0.00;0.00;0.62;;;;;24.90;1.00;;;;;;2264485;61;1927;-88
2023/05/27 10:35:28;246514.00;0.82;425.96;40187.00;0.13;70.21;;;;;24.90;1.00;;;;;;2264581;61;1399;-89
2023/05/27 10:37:56;210150.00;0.70;363.39;0.00;0.00;0.62;;;;;24.50;1.00;;;;;;2264542;61;1623;-89
2023/05/27 10:40:26;98304.00;0.33;170.64;0.00;0.00;0.62;;;;;24.60;1.00;;;;;;2264547;61;1064;-89
2023/05/27 10:43:02;208849.00;0.70;361.15;0.00;0.00;0.62;;;;;24.30;1.00;;;;;;2264487;61;1016;-88
2023/05/27 10:45:36;394043.00;1.31;679.56;62102.00;0.21;108.11;;;;;23.90;1.00;;;;;;2264408;61;1390;-88
2023/05/27 10:48:03;284881.00;0.95;491.93;0.00;0.00;0.62;;;;;24.10;1.00;;;;;;2264602;61;2263;-88
2023/05/27 10:50:35;173304.00;0.58;299.96;0.00;0.00;0.62;;;;;24.70;1.00;;;;;;2264583;61;1119;-89
2023/05/27 10:53:02;146964.00;0.49;254.57;0.00;0.00;0.62;;;;;25.20;1.00;;;;;;2264448;61;1928;-87
2023/05/27 10:55:31;75020.00;0.25;130.43;0.00;0.00;0.62;;;;;25.40;1.00;;;;;;2264527;61;1397;-89
2023/05/27 10:57:59;38097.00;0.13;66.60;0.00;0.00;0.62;;;;;24.90;1.00;;;;;;2264396;61;956;-87
2023/05/27 11:00:28;121493.00;0.40;210.66;46011.00;0.15;80.29;;;;;25.30;1.00;;;;;;2264376;61;2151;-87
2023/05/27 11:02:55;72733.00;0.24;126.48;0.00;0.00;0.62;;;;;25.20;1.00;;;;;;2264378;61;1189;-88
2023/05/27 11:05:29;76447.00;0.25;132.90;0.00;0.00;0.62;;;;;24.80;1.00;;;;;;2264384;61;1428;-88
2023/05/27 11:07:56;31633.00;0.11;55.41;0.00;0.00;0.62;;;;;24.40;1.00;;;;;;2264478;61;1087;-89
2023/05/27 11:10:23;107247.00;0.36;186.08;0.00;0.00;0.62;;;;;24.60;1.00;;;;;;2264462;61;1028;-89
2023/05/27 11:12:50;221223.00;0.74;382.45;48250.00;0.16;84.16;;;;;24.80;1.00;;;;;;2264537;61;1907;-88
2023/05/27 11:15:19;122104.00;0.41;211.71;0.00;0.00;0.62;;;;;25.10;1.00;;;;;;2266178;55;3882;-88
2023/05/27 11:17:47;212095.00;0.71;366.74;0.00;0.00;0.62;;;;;24.70;1.00;;;;;;2264427;61;1158;-86
2023/05/27 11:20:16;328828.00;1.10;567.47;85901.00;0.29;149.23;;;;;24.40;1.00;;;;;;2264504;61;906;-87
2023/05/27 11:22:50;100202.00;0.33;173.92;0.00;0.00;0.62;;;;;24.30;1.00;;;;;;2264480;61;1143;-87
2023/05/27 11:25:17;226842.00;0.76;392.12;0.00;0.00;0.62;;;;;24.40;1.00;;;;;;2264457;61;1337;-89
2023/05/27 11:27:44;88506.00;0.30;153.73;0.00;0.00;0.62;;;;;24.40;1.00;;;;;;2264413;61;1588;-88
2023/05/27 11:30:13;49834.00;0.17;86.90;0.00;0.00;0.62;;;;;24.40;1.00;;;;;;2264467;61;1030;-89
2023/05/27 11:32:41;253361.00;0.84;437.73;42225.00;0.14;73.74;;;;;24.70;1.00;;;;;;2264314;61;1915;-88
2023/05/27 11:35:15;355828.00;1.19;613.88;107914.00;0.36;187.23;;;;;24.70;1.00;;;;;;2264381;61;1372;-87
2023/05/27 11:37:46;105387.00;0.35;182.87;0.00;0.00;0.62;;;;;24.60;1.00;;;;;;2264394;61;974;-88
2023/05/27 11:40:13;216709.00;0.72;374.68;0.00;0.00;0.62;;;;;24.60;1.00;;;;;;2264470;61;1153;-87
2023/05/27 11:42:46;171919.00;0.57;297.57;27779.00;0.09;48.74;;;;;24.70;1.00;;;;;;2264381;61;966;-86
2023/05/27 11:45:18;209541.00;0.70;362.35;0.00;0.00;0.62;;;;;24.50;1.00;;;;;;2264435;61;1314;-88
2023/05/27 11:47:46;359539.00;1.20;620.26;78688.00;0.26;136.77;;;;;24.60;1.00;;;;;;2264353;61;930;-87
2023/05/27 11:50:18;345026.00;1.15;595.31;138612.00;0.46;240.18;;;;;24.40;1.00;;;;;;2264345;61;1044;-87
2023/05/27 11:52:52;816713.00;2.72;1410.29;183774.00;0.61;317.99;;;;;24.50;1.00;;;;;;2264238;61;2015;-87
2023/05/27 11:55:19;238406.00;0.79;412.01;13266.00;0.04;23.61;;;;;24.80;1.00;;;;;;2264288;61;1486;-88
2023/05/27 11:57:46;138099.00;0.46;239.29;0.00;0.00;0.62;;;;;24.70;1.00;;;;;;2264279;61;1074;-89
2023/05/27 12:00:14;24542.00;0.08;43.13;0.00;0.00;0.62;;;;;24.50;1.00;;;;;;2264309;61;1069;-87
2023/05/27 12:02:42;215800.00;0.72;373.12;0.00;0.00;0.62;;;;;24.60;1.00;;;;;;2264105;61;1521;-89
2023/05/27 12:05:10;187333.00;0.62;324.12;0.00;0.00;0.62;;;;;24.50;1.00;;;;;;2264274;61;1394;-87
2023/05/27 12:07:40;0.00;0.00;0.62;0.00;0.00;0.62;;;;;25.10;1.00;;;;;;2264257;61;1096;-87
2023/05/27 12:10:08;117274.00;0.39;203.38;0.00;0.00;0.62;;;;;25.50;1.00;;;;;;2264233;61;1075;-88
2023/05/27 12:12:35;159121.00;0.53;275.52;0.00;0.00;0.62;;;;;25.30;1.00;;;;;;2264162;61;1993;-89
2023/05/27 12:15:02;365610.00;1.22;630.69;47910.00;0.16;83.57;;;;;25.30;1.00;;;;;;2264249;61;1300;-87
2023/05/27 12:17:29;11120.00;0.04;19.89;0.00;0.00;0.62;;;;;24.70;1.00;;;;;;2264329;61;1214;-87
2023/05/27 12:19:56;324992.00;1.08;560.88;20455.00;0.07;36.06;;;;;24.60;1.00;;;;;;2264294;61;1001;-87
2023/05/27 12:22:24;101891.00;0.34;176.84;0.00;0.00;0.62;;;;;24.60;1.00;;;;;;2264301;61;1142;-86
2023/05/27 12:24:53;321380.00;1.07;554.67;77983.00;0.26;135.55;;;;;24.70;1.00;;;;;;2264119;61;1412;-89
2023/05/27 12:27:22;65042.00;0.22;113.19;0.00;0.00;0.62;;;;;24.90;1.00;;;;;;2264163;61;1642;-89
2023/05/27 12:29:49;28974.00;0.10;50.81;0.00;0.00;0.62;;;;;25.30;1.00;;;;;;2264248;61;1015;-89
2023/05/27 12:32:16;266492.00;0.89;460.31;53576.00;0.18;93.37;;;;;25.00;1.00;;;;;;2264130;61;1999;-89
2023/05/27 12:34:43;156446.00;0.52;270.92;0.00;0.00;0.62;;;;;24.60;1.00;;;;;;2263898;61;1294;-87
2023/05/27 12:37:10;23226.00;0.08;40.86;0.00;0.00;0.62;;;;;24.80;1.00;;;;;;2264137;61;1118;-88
2023/05/27 12:39:37;121331.00;0.40;210.38;0.00;0.00;0.62;;;;;25.20;1.00;;;;;;2264088;61;1723;-87
2023/05/27 12:42:06;111736.00;0.37;193.83;0.00;0.00;0.62;;;;;25.10;1.00;;;;;;2264169;61;974;-86
2023/05/27 12:44:33;23960.00;0.08;42.13;0.00;0.00;0.62;;;;;25.20;1.00;;;;;;2264150;61;1402;-87
2023/05/27 12:46:59;155586.00;0.52;269.43;0.00;0.00;0.62;;;;;25.10;1.00;;;;;;2264164;61;1088;-88
2023/05/27 12:49:27;18694.00;0.06;33.01;0.00;0.00;0.62;;;;;25.30;1.00;;;;;;2264147;61;1046;-87
2023/05/27 12:51:54;18756.00;0.06;33.12;0.00;0.00;0.62;;;;;25.30;1.00;;;;;;2264117;61;1121;-87
2023/05/27 12:54:21;34830.00;0.12;60.94;0.00;0.00;0.62;;;;;25.40;1.00;;;;;;2264036;61;1969;-87
2023/05/27 12:56:48;105410.00;0.35;182.91;40264.00;0.13;70.35;;;;;25.30;1.00;;;;;;2264168;61;1144;-87
2023/05/27 12:59:17;90816.00;0.30;157.72;0.00;0.00;0.62;;;;;25.10;1.00;;;;;;2264138;61;989;-88
2023/05/27 13:01:43;101547.00;0.34;176.24;35696.00;0.12;62.44;;;;;25.20;1.00;;;;;;2264179;61;1145;-87
2023/05/27 13:04:10;220242.00;0.73;380.76;0.00;0.00;0.62;;;;;25.30;1.00;;;;;;2264133;61;1100;-88
2023/05/27 13:06:39;328117.00;1.09;566.25;66798.00;0.22;116.23;;;;;25.30;1.00;;;;;;2263978;61;1478;-86
2023/05/27 13:09:07;109661.00;0.37;190.25;0.00;0.00;0.62;;;;;25.50;1.00;;;;;;2264026;61;1071;-87
2023/05/27 13:11:35;211361.00;0.70;365.48;0.00;0.00;0.62;;;;;25.40;1.00;;;;;;2264108;61;1036;-89
2023/05/27 13:14:02;163179.00;0.54;282.52;0.00;0.00;0.62;;;;;24.90;1.00;;;;;;2264131;61;2001;-88
2023/05/27 13:16:31;295074.00;0.98;509.45;27817.00;0.09;48.80;;;;;25.00;1.00;;;;;;2263880;61;1311;-86
2023/05/27 13:18:58;161736.00;0.54;280.03;37738.00;0.13;65.97;;;;;25.60;1.00;;;;;;2263946;61;1103;-87
2023/05/27 13:21:24;295772.00;0.99;510.65;16082.00;0.05;28.48;;;;;25.40;1.00;;;;;;2264045;61;1148;-88
2023/05/27 13:23:52;33632.00;0.11;58.87;0.00;0.00;0.62;;;;;25.50;1.00;;;;;;2264162;61;1018;-87
2023/05/27 13:26:20;73390.00;0.24;127.62;0.00;0.00;0.62;;;;;25.10;1.00;;;;;;2264063;61;1305;-87
2023/05/27 13:28:47;17720.00;0.06;31.32;0.00;0.00;0.62;;;;;25.00;1.00;;;;;;2264047;61;1040;-87
2023/05/27 13:31:14;197061.00;0.66;340.86;63186.00;0.21;109.98;;;;;24.90;1.00;;;;;;2264130;61;993;-88
2023/05/27 13:33:44;117426.00;0.39;203.64;35878.00;0.12;62.76;;;;;25.10;1.00;;;;;;2264052;61;1993;-87
2023/05/27 13:36:11;296247.00;0.99;511.47;36312.00;0.12;63.51;;;;;25.10;1.00;;;;;;2264041;61;1453;-88
2023/05/27 13:38:38;126894.00;0.42;219.97;0.00;0.00;0.62;;;;;25.10;1.00;;;;;;2264053;61;1589;-88
2023/05/27 13:41:05;288016.00;0.96;497.32;0.00;0.00;0.62;;;;;24.80;1.00;;;;;;2264148;61;1080;-87
2023/05/27 13:43:32;119606.00;0.40;207.40;0.00;0.00;0.62;;;;;24.80;1.00;;;;;;2264064;61;1001;-89
2023/05/27 13:45:59;221426.00;0.74;382.80;47783.00;0.16;83.35;;;;;24.80;1.00;;;;;;2264377;61;1392;-87
2023/05/27 13:48:26;258789.00;0.86;447.07;0.00;0.00;0.62;;;;;24.60;1.00;;;;;;2264623;61;1590;-87
2023/05/27 13:50:55;483247.00;1.61;832.99;105207.00;0.35;182.56;;;;;24.80;1.00;;;;;;2266769;55;3776;-88
2023/05/27 13:53:22;135667.00;0.45;235.10;0.00;0.00;0.62;;;;;24.80;1.00;;;;;;2264588;61;1995;-87
2023/05/27 13:55:49;79288.00;0.26;137.81;0.00;0.00;0.62;;;;;24.90;1.00;;;;;;2264745;61;1290;-86
2023/05/27 13:58:18;80383.00;0.27;139.70;0.00;0.00;0.62;;;;;25.20;1.00;;;;;;2264558;61;1151;-87
2023/05/27 14:00:45;196670.00;0.66;340.19;0.00;0.00;0.62;;;;;25.60;1.00;;;;;;2264404;61;1045;-87
2023/05/27 14:03:12;102914.00;0.34;178.60;0.00;0.00;0.62;;;;;25.30;1.00;;;;;;2264683;61;1060;-87
2023/05/27 14:05:39;169372.00;0.56;293.18;0.00;0.00;0.62;;;;;25.50;1.00;;;;;;2264532;61;1442;-86
2023/05/27 14:08:08;52842.00;0.18;92.10;0.00;0.00;0.62;;;;;25.20;1.00;;;;;;2264731;61;902;-87
2023/05/27 14:10:34;76503.00;0.26;133.00;0.00;0.00;0.62;;;;;25.30;1.00;;;;;;2264678;61;1079;-87
2023/05/27 14:13:02;102449.00;0.34;177.80;0.00;0.00;0.62;;;;;24.90;1.00;;;;;;2264672;61;1919;-88
2023/05/27 14:15:29;208062.00;0.69;359.80;0.00;0.00;0.62;;;;;24.70;1.00;;;;;;2264698;61;1462;-87
2023/05/27 14:18:00;246178.00;0.82;425.38;46836.00;0.16;81.71;;;;;24.90;1.00;;;;;;2264679;61;1068;-87
2023/05/27 14:20:27;57177.00;0.19;99.60;0.00;0.00;0.62;;;;;24.60;1.00;;;;;;2264667;61;1119;-87
2023/05/27 14:22:54;341747.00;1.14;589.68;97236.00;0.32;168.80;;;;;24.90;1.00;;;;;;2264599;61;1103;-87
2023/05/27 14:25:23;139289.00;0.46;241.35;0.00;0.00;0.62;;;;;24.70;1.00;;;;;;2264497;61;1394;-86
2023/05/27 14:27:50;252681.00;0.84;436.56;36398.00;0.12;63.66;;;;;24.50;1.00;;;;;;2264682;61;1055;-88
2023/05/27 14:30:17;189438.00;0.63;327.74;0.00;0.00;0.62;;;;;24.60;1.00;;;;;;2264568;61;1752;-88
2023/05/27 14:32:44;133692.00;0.45;231.70;23421.00;0.08;41.19;;;;;24.60;1.00;;;;;;2264534;61;1994;-89
2023/05/27 14:35:11;80462.00;0.27;139.84;0.00;0.00;0.62;;;;;24.80;1.00;;;;;;2264566;61;2173;-87
2023/05/27 14:37:38;50061.00;0.17;87.29;0.00;0.00;0.62;;;;;24.80;1.00;;;;;;2264549;61;1333;-87
2023/05/27 14:40:07;38913.00;0.13;68.01;0.00;0.00;0.62;;;;;24.80;1.00;;;;;;2264618;61;994;-86
2023/05/27 14:42:37;83844.00;0.28;145.68;0.00;0.00;0.62;;;;;24.90;1.00;;;;;;2264673;61;883;-88
2023/05/27 14:45:04;89633.00;0.30;155.67;0.00;0.00;0.62;;;;;24.80;1.00;;;;;;2264506;61;1401;-89
2023/05/27 14:47:31;188582.00;0.63;326.27;0.00;0.00;0.62;;;;;24.80;1.00;;;;;;2264540;61;1616;-87
2023/05/27 14:49:58;327492.00;1.09;565.18;0.00;0.00;0.62;;;;;24.50;1.00;;;;;;2264509;61;1049;-87
2023/05/27 14:52:25;116842680.00;389.48;64614136.00;0.00;0.00;0.62;;;;;24.80;1.00;;;;;;2264547;61;1037;-86
2023/05/27 14:54:51;359031.00;1.20;619.38;51981.00;0.17;90.61;;;;;24.70;1.00;;;;;;2264499;61;1924;-88
2023/05/27 14:57:18;546528.00;1.82;941.97;94943.00;0.32;164.84;;;;;24.80;1.00;;;;;;2264383;61;970;-87
2023/05/27 14:59:47;104440.00;0.35;181.24;38911.00;0.13;68.00;;;;;24.40;1.00;;;;;;2264481;61;878;-87
2023/05/27 15:02:14;70770.00;0.24;123.09;0.00;0.00;0.62;;;;;24.70;1.00;;;;;;2264478;61;1684;-88
2023/05/27 15:04:41;57734.00;0.19;100.56;0.00;0.00;0.62;;;;;24.80;1.00;;;;;;2264413;61;1344;-87
2023/05/27 15:07:08;73348.00;0.24;127.55;0.00;0.00;0.62;;;;;24.90;1.00;;;;;;2264501;61;1037;-87
2023/05/27 15:09:35;176066.00;0.59;304.71;0.00;0.00;0.62;;;;;24.90;1.00;;;;;;2264515;61;1104;-87
2023/05/27 15:12:02;225062.00;0.75;389.05;21138.00;0.07;37.24;;;;;24.80;1.00;;;;;;2264495;61;1083;-87
2023/05/27 15:14:28;171580.00;0.57;296.99;0.00;0.00;0.62;;;;;24.80;1.00;;;;;;2264316;61;1997;-87
2023/05/27 15:16:57;59446.00;0.20;103.52;0.00;0.00;0.62;;;;;25.10;1.00;;;;;;2264496;61;1142;-87
2023/05/27 15:19:23;53441.00;0.18;93.14;0.00;0.00;0.62;;;;;25.10;1.00;;;;;;2264415;61;1723;-86
2023/05/27 15:21:50;44523.00;0.15;77.71;0.00;0.00;0.62;;;;;25.20;1.00;;;;;;2264249;61;985;-87
2023/05/27 15:24:17;89580.00;0.30;155.58;0.00;0.00;0.62;;;;;24.90;1.00;;;;;;2264298;61;1375;-85
2023/05/27 15:26:44;118736.00;0.40;205.90;32963.00;0.11;57.71;;;;;24.90;1.00;;;;;;2264355;61;915;-87
2023/05/27 15:29:11;238.00;0.00;1.03;0.00;0.00;0.62;;;;;24.80;1.00;;;;;;2264343;61;1045;-87
2023/05/27 15:31:37;51483.00;0.17;89.75;0.00;0.00;0.62;;;;;24.70;1.00;;;;;;2264328;61;1021;-86
2023/05/27 15:34:06;239009.00;0.80;413.05;74395.00;0.25;129.35;;;;;24.60;1.00;;;;;;2264272;61;1920;-87
2023/05/27 15:36:34;353876.00;1.18;610.52;54007.00;0.18;94.12;;;;;24.40;1.00;;;;;;2264249;61;1306;-87
2023/05/27 15:39:01;47825.00;0.16;83.42;0.00;0.00;0.62;;;;;24.50;1.00;;;;;;2264275;61;1033;-88
2023/05/27 15:41:28;226542.00;0.76;391.60;43514.00;0.15;75.97;;;;;24.40;1.00;;;;;;2264256;61;1476;-87
2023/05/27 15:43:54;142087.00;0.47;246.17;0.00;0.00;0.62;;;;;24.40;1.00;;;;;;2264311;61;1000;-86
2023/05/27 15:46:22;88666.00;0.30;154.00;0.00;0.00;0.62;;;;;24.60;1.00;;;;;;2264240;61;1403;-86
2023/05/27 15:48:48;296079.00;0.99;511.18;36475.00;0.12;63.79;;;;;24.50;1.00;;;;;;2264306;61;990;-86
2023/05/27 15:51:17;337014.00;1.12;581.54;85773.00;0.29;149.01;;;;;24.70;1.00;;;;;;2264128;61;973;-86
2023/05/27 15:53:44;149694.00;0.50;259.28;0.00;0.00;0.62;;;;;24.70;1.00;;;;;;2264206;61;2003;-86
2023/05/27 15:56:12;117252.00;0.39;203.34;0.00;0.00;0.62;;;;;24.60;1.00;;;;;;2264270;61;1290;-87
2023/05/27 15:58:39;183421.00;0.61;317.38;0.00;0.00;0.62;;;;;24.50;1.00;;;;;;2264263;61;1094;-87
2023/05/27 16:01:06;123568.00;0.41;214.24;0.00;0.00;0.62;;;;;24.60;1.00;;;;;;2264306;61;1005;-87
2023/05/27 16:03:33;194914.00;0.65;337.17;0.00;0.00;0.62;;;;;24.80;1.00;;;;;;2264224;61;1032;-87
2023/05/27 16:06:00;26197.00;0.09;46.00;0.00;0.00;0.62;;;;;24.70;1.00;;;;;;2264238;61;1386;-86
2023/05/27 16:08:28;128089.00;0.43;222.03;0.00;0.00;0.62;;;;;24.60;1.00;;;;;;2264012;61;1065;-87
2023/05/27 16:10:55;54243.00;0.18;94.52;0.00;0.00;0.62;;;;;24.90;1.00;;;;;;2264019;61;1121;-88
2023/05/27 16:13:22;263898.00;0.88;455.85;0.00;0.00;0.62;;;;;25.00;1.00;;;;;;2264069;61;1924;-87
2023/05/27 16:15:49;34511.00;0.12;60.39;0.00;0.00;0.62;;;;;24.70;1.00;;;;;;2264153;61;1350;-86
2023/05/27 16:18:18;346734.00;1.16;598.25;55179.00;0.18;96.14;;;;;24.50;1.00;;;;;;2264200;61;1135;-87
2023/05/27 16:20:45;76045.00;0.25;132.21;0.00;0.00;0.62;;;;;24.50;1.00;;;;;;2264155;61;1029;-87
2023/05/27 16:23:12;222796.00;0.74;385.15;8598.00;0.03;15.52;;;;;24.70;1.00;;;;;;2264085;61;1050;-86
2023/05/27 16:25:41;63967.00;0.21;111.33;0.00;0.00;0.62;;;;;24.70;1.00;;;;;;2264181;61;1399;-87
2023/05/27 16:28:07;29207.00;0.10;51.21;0.00;0.00;0.62;;;;;24.60;1.00;;;;;;2264164;61;1100;-86
2023/05/27 16:30:34;1853.00;0.01;3.83;0.00;0.00;0.62;;;;;24.50;1.00;;;;;;2264206;61;1065;-88
2023/05/27 16:33:01;93485.00;0.31;162.32;0.00;0.00;0.62;;;;;24.70;1.00;;;;;;2264134;61;911;-86
2023/05/27 16:35:28;59118.00;0.20;102.95;0.00;0.00;0.62;;;;;24.50;1.00;;;;;;2264161;61;2005;-87
2023/05/27 16:37:55;8652.00;0.03;15.61;0.00;0.00;0.62;;;;;24.70;1.00;;;;;;2264079;61;916;-86
2023/05/27 16:40:22;352779.00;1.18;608.64;65764.00;0.22;114.44;;;;;24.50;1.00;;;;;;2264083;61;1088;-86
2023/05/27 16:42:50;49061.00;0.16;85.56;0.00;0.00;0.62;;;;;24.40;1.00;;;;;;2264166;61;1142;-87
2023/05/27 16:45:17;307994.00;1.03;531.66;22098.00;0.07;38.90;;;;;24.50;1.00;;;;;;2264073;61;1300;-87
2023/05/27 16:47:43;295280.00;0.98;509.81;43233.00;0.14;75.48;;;;;24.20;1.00;;;;;;2264107;61;1107;-86